sensor_id;sensor_type;location;lat;lon;timestamp;P1;durP1;ratioP1;P2;durP2;ratioP2
51048;SDS011;37084;55.228;36.450;2022-12-24T00:00:44;16.83;;;8.35;;
51048;SDS011;37084;55.228;36.450;2022-12-24T00:03:46;17.55;;;7.88;;
51048;SDS011;37084;55.228;36.450;2022-12-24T00:06:47;18.67;;;7.32;;
51048;SDS011;37084;55.228;36.450;2022-12-24T00:09:48;16.88;;;6.88;;
51048;SDS011;37084;55.228;36.450;2022-12-24T00:12:49;19.90;;;7.45;;
51048;SDS011;37084;55.228;36.450;2022-12-24T00:15:50;20.55;;;7.57;;
51048;SDS011;37084;55.228;36.450;2022-12-24T00:18:52;18.50;;;8.68;;
51048;SDS011;37084;55.228;36.450;2022-12-24T00:21:53;17.02;;;8.10;;
51048;SDS011;37084;55.228;36.450;2022-12-24T00:24:55;16.50;;;7.38;;
51048;SDS011;37084;55.228;36.450;2022-12-24T00:27:56;17.52;;;7.70;;
51048;SDS011;37084;55.228;36.450;2022-12-24T00:30:58;15.10;;;7.18;;
51048;SDS011;37084;55.228;36.450;2022-12-24T00:33:59;18.27;;;7.75;;
51048;SDS011;37084;55.228;36.450;2022-12-24T00:37:01;17.38;;;7.45;;
51048;SDS011;37084;55.228;36.450;2022-12-24T00:40:03;16.30;;;7.40;;
51048;SDS011;37084;55.228;36.450;2022-12-24T00:43:04;19.70;;;8.80;;
51048;SDS011;37084;55.228;36.450;2022-12-24T00:46:05;16.58;;;7.78;;
51048;SDS011;37084;55.228;36.450;2022-12-24T00:49:07;20.70;;;7.82;;
51048;SDS011;37084;55.228;36.450;2022-12-24T00:52:09;21.83;;;7.78;;
51048;SDS011;37084;55.228;36.450;2022-12-24T00:55:10;17.90;;;7.53;;
51048;SDS011;37084;55.228;36.450;2022-12-24T00:58:13;18.60;;;7.43;;
51048;SDS011;37084;55.228;36.450;2022-12-24T01:01:14;17.23;;;7.43;;
51048;SDS011;37084;55.228;36.450;2022-12-24T01:04:15;21.65;;;8.57;;
51048;SDS011;37084;55.228;36.450;2022-12-24T01:07:36;20.23;;;6.63;;
51048;SDS011;37084;55.228;36.450;2022-12-24T01:10:41;18.00;;;7.75;;
51048;SDS011;37084;55.228;36.450;2022-12-24T01:13:43;16.42;;;7.72;;
51048;SDS011;37084;55.228;36.450;2022-12-24T01:16:44;20.73;;;8.65;;
51048;SDS011;37084;55.228;36.450;2022-12-24T01:19:45;16.67;;;8.32;;
51048;SDS011;37084;55.228;36.450;2022-12-24T01:22:46;17.58;;;8.20;;
51048;SDS011;37084;55.228;36.450;2022-12-24T01:25:48;20.45;;;8.35;;
51048;SDS011;37084;55.228;36.450;2022-12-24T01:28:49;19.73;;;8.55;;
51048;SDS011;37084;55.228;36.450;2022-12-24T01:31:51;20.33;;;8.52;;
51048;SDS011;37084;55.228;36.450;2022-12-24T01:34:52;23.35;;;9.07;;
51048;SDS011;37084;55.228;36.450;2022-12-24T01:37:53;23.77;;;8.93;;
51048;SDS011;37084;55.228;36.450;2022-12-24T01:40:54;17.20;;;8.45;;
51048;SDS011;37084;55.228;36.450;2022-12-24T01:44:28;25.17;;;8.70;;
51048;SDS011;37084;55.228;36.450;2022-12-24T01:47:31;21.00;;;8.32;;
51048;SDS011;37084;55.228;36.450;2022-12-24T01:50:32;22.17;;;8.73;;
51048;SDS011;37084;55.228;36.450;2022-12-24T01:53:33;23.27;;;8.32;;
51048;SDS011;37084;55.228;36.450;2022-12-24T01:56:39;22.45;;;7.97;;
51048;SDS011;37084;55.228;36.450;2022-12-24T01:59:45;24.73;;;8.43;;
51048;SDS011;37084;55.228;36.450;2022-12-24T02:02:50;20.98;;;8.25;;
51048;SDS011;37084;55.228;36.450;2022-12-24T02:05:53;20.75;;;7.45;;
51048;SDS011;37084;55.228;36.450;2022-12-24T02:08:55;14.88;;;6.45;;
51048;SDS011;37084;55.228;36.450;2022-12-24T02:11:57;22.90;;;9.10;;
51048;SDS011;37084;55.228;36.450;2022-12-24T02:14:58;26.67;;;7.65;;
51048;SDS011;37084;55.228;36.450;2022-12-24T02:18:09;18.75;;;8.43;;
51048;SDS011;37084;55.228;36.450;2022-12-24T02:21:22;15.43;;;6.93;;
51048;SDS011;37084;55.228;36.450;2022-12-24T02:31:13;27.25;;;10.80;;
51048;SDS011;37084;55.228;36.450;2022-12-24T02:37:48;27.58;;;10.05;;
51048;SDS011;37084;55.228;36.450;2022-12-24T02:41:10;28.25;;;9.82;;
51048;SDS011;37084;55.228;36.450;2022-12-24T02:44:16;30.42;;;10.93;;
51048;SDS011;37084;55.228;36.450;2022-12-24T02:47:19;24.30;;;9.63;;
51048;SDS011;37084;55.228;36.450;2022-12-24T02:50:23;26.80;;;9.63;;
51048;SDS011;37084;55.228;36.450;2022-12-24T02:53:24;31.25;;;10.05;;
51048;SDS011;37084;55.228;36.450;2022-12-24T02:59:58;31.17;;;11.20;;
51048;SDS011;37084;55.228;36.450;2022-12-24T03:03:20;22.67;;;7.50;;
51048;SDS011;37084;55.228;36.450;2022-12-24T03:06:40;23.80;;;9.38;;
51048;SDS011;37084;55.228;36.450;2022-12-24T03:13:09;24.13;;;8.57;;
51048;SDS011;37084;55.228;36.450;2022-12-24T03:16:15;27.30;;;10.27;;
51048;SDS011;37084;55.228;36.450;2022-12-24T03:19:19;26.42;;;10.57;;
51048;SDS011;37084;55.228;36.450;2022-12-24T03:22:21;29.17;;;10.35;;
51048;SDS011;37084;55.228;36.450;2022-12-24T03:25:25;30.67;;;9.30;;
51048;SDS011;37084;55.228;36.450;2022-12-24T03:28:27;32.97;;;11.45;;
51048;SDS011;37084;55.228;36.450;2022-12-24T03:31:38;21.80;;;8.40;;
51048;SDS011;37084;55.228;36.450;2022-12-24T03:34:42;24.02;;;9.73;;
51048;SDS011;37084;55.228;36.450;2022-12-24T03:37:43;21.25;;;8.07;;
51048;SDS011;37084;55.228;36.450;2022-12-24T03:40:45;26.85;;;10.50;;
51048;SDS011;37084;55.228;36.450;2022-12-24T03:43:46;25.17;;;9.43;;
51048;SDS011;37084;55.228;36.450;2022-12-24T03:46:47;28.08;;;9.88;;
51048;SDS011;37084;55.228;36.450;2022-12-24T03:49:48;23.45;;;9.02;;
51048;SDS011;37084;55.228;36.450;2022-12-24T03:52:50;29.13;;;11.20;;
51048;SDS011;37084;55.228;36.450;2022-12-24T03:55:51;30.20;;;10.85;;
51048;SDS011;37084;55.228;36.450;2022-12-24T03:58:52;26.33;;;9.30;;
51048;SDS011;37084;55.228;36.450;2022-12-24T04:01:53;31.25;;;11.57;;
51048;SDS011;37084;55.228;36.450;2022-12-24T04:04:54;26.83;;;10.77;;
51048;SDS011;37084;55.228;36.450;2022-12-24T04:07:56;33.30;;;12.95;;
51048;SDS011;37084;55.228;36.450;2022-12-24T04:10:57;34.65;;;11.35;;
51048;SDS011;37084;55.228;36.450;2022-12-24T04:13:58;38.30;;;11.73;;
51048;SDS011;37084;55.228;36.450;2022-12-24T04:16:59;26.67;;;10.57;;
51048;SDS011;37084;55.228;36.450;2022-12-24T04:20:01;30.73;;;10.68;;
51048;SDS011;37084;55.228;36.450;2022-12-24T04:23:03;27.17;;;11.07;;
51048;SDS011;37084;55.228;36.450;2022-12-24T04:26:05;33.97;;;11.43;;
51048;SDS011;37084;55.228;36.450;2022-12-24T04:29:07;22.48;;;8.55;;
51048;SDS011;37084;55.228;36.450;2022-12-24T04:32:09;19.77;;;8.32;;
51048;SDS011;37084;55.228;36.450;2022-12-24T04:35:10;28.17;;;9.93;;
51048;SDS011;37084;55.228;36.450;2022-12-24T04:38:11;28.42;;;10.70;;
51048;SDS011;37084;55.228;36.450;2022-12-24T04:41:14;25.38;;;9.60;;
51048;SDS011;37084;55.228;36.450;2022-12-24T04:44:16;27.42;;;10.32;;
51048;SDS011;37084;55.228;36.450;2022-12-24T04:47:18;31.38;;;11.45;;
51048;SDS011;37084;55.228;36.450;2022-12-24T04:50:19;26.70;;;9.38;;
51048;SDS011;37084;55.228;36.450;2022-12-24T04:53:20;27.67;;;10.23;;
51048;SDS011;37084;55.228;36.450;2022-12-24T04:56:22;28.73;;;10.90;;
51048;SDS011;37084;55.228;36.450;2022-12-24T04:59:25;32.47;;;9.85;;
51048;SDS011;37084;55.228;36.450;2022-12-24T05:02:26;20.90;;;7.20;;
51048;SDS011;37084;55.228;36.450;2022-12-24T05:05:28;28.27;;;9.43;;
51048;SDS011;37084;55.228;36.450;2022-12-24T05:08:29;27.80;;;10.80;;
51048;SDS011;37084;55.228;36.450;2022-12-24T05:11:30;14.98;;;5.13;;
51048;SDS011;37084;55.228;36.450;2022-12-24T05:14:32;24.58;;;9.40;;
51048;SDS011;37084;55.228;36.450;2022-12-24T05:17:33;18.45;;;6.60;;
51048;SDS011;37084;55.228;36.450;2022-12-24T05:20:34;17.23;;;6.43;;
51048;SDS011;37084;55.228;36.450;2022-12-24T05:23:36;28.00;;;9.80;;
51048;SDS011;37084;55.228;36.450;2022-12-24T05:26:56;27.05;;;9.55;;
51048;SDS011;37084;55.228;36.450;2022-12-24T05:29:58;22.60;;;9.65;;
51048;SDS011;37084;55.228;36.450;2022-12-24T05:32:59;27.13;;;10.35;;
51048;SDS011;37084;55.228;36.450;2022-12-24T05:36:01;31.75;;;10.98;;
51048;SDS011;37084;55.228;36.450;2022-12-24T05:39:02;29.83;;;10.52;;
51048;SDS011;37084;55.228;36.450;2022-12-24T05:42:04;34.72;;;12.48;;
51048;SDS011;37084;55.228;36.450;2022-12-24T05:45:05;25.33;;;8.45;;
51048;SDS011;37084;55.228;36.450;2022-12-24T05:48:07;24.92;;;9.05;;
51048;SDS011;37084;55.228;36.450;2022-12-24T05:51:09;16.27;;;7.05;;
51048;SDS011;37084;55.228;36.450;2022-12-24T05:54:11;26.35;;;9.52;;
51048;SDS011;37084;55.228;36.450;2022-12-24T05:57:12;25.17;;;10.55;;
51048;SDS011;37084;55.228;36.450;2022-12-24T06:00:14;30.35;;;10.45;;
51048;SDS011;37084;55.228;36.450;2022-12-24T06:03:15;23.17;;;9.55;;
51048;SDS011;37084;55.228;36.450;2022-12-24T06:06:17;15.35;;;6.65;;
51048;SDS011;37084;55.228;36.450;2022-12-24T06:09:21;21.63;;;9.20;;
51048;SDS011;37084;55.228;36.450;2022-12-24T06:12:22;24.10;;;8.50;;
51048;SDS011;37084;55.228;36.450;2022-12-24T06:15:23;12.13;;;5.93;;
51048;SDS011;37084;55.228;36.450;2022-12-24T06:18:25;20.40;;;8.15;;
51048;SDS011;37084;55.228;36.450;2022-12-24T06:21:26;27.42;;;10.60;;
51048;SDS011;37084;55.228;36.450;2022-12-24T06:24:27;17.60;;;7.22;;
51048;SDS011;37084;55.228;36.450;2022-12-24T06:27:28;20.35;;;8.50;;
51048;SDS011;37084;55.228;36.450;2022-12-24T06:30:30;23.90;;;9.48;;
51048;SDS011;37084;55.228;36.450;2022-12-24T06:33:31;18.48;;;8.65;;
51048;SDS011;37084;55.228;36.450;2022-12-24T06:36:33;23.02;;;8.90;;
51048;SDS011;37084;55.228;36.450;2022-12-24T06:39:34;20.63;;;8.32;;
51048;SDS011;37084;55.228;36.450;2022-12-24T06:42:35;18.73;;;7.32;;
51048;SDS011;37084;55.228;36.450;2022-12-24T06:45:36;19.23;;;7.75;;
51048;SDS011;37084;55.228;36.450;2022-12-24T06:48:37;17.90;;;6.32;;
51048;SDS011;37084;55.228;36.450;2022-12-24T06:51:38;20.52;;;8.90;;
51048;SDS011;37084;55.228;36.450;2022-12-24T06:54:40;20.38;;;8.18;;
51048;SDS011;37084;55.228;36.450;2022-12-24T06:57:41;18.88;;;7.95;;
51048;SDS011;37084;55.228;36.450;2022-12-24T07:00:42;19.52;;;8.43;;
51048;SDS011;37084;55.228;36.450;2022-12-24T07:03:43;17.80;;;6.72;;
51048;SDS011;37084;55.228;36.450;2022-12-24T07:06:45;16.85;;;7.05;;
51048;SDS011;37084;55.228;36.450;2022-12-24T07:09:46;18.48;;;7.70;;
51048;SDS011;37084;55.228;36.450;2022-12-24T07:12:48;16.10;;;6.80;;
51048;SDS011;37084;55.228;36.450;2022-12-24T07:15:56;15.23;;;6.72;;
51048;SDS011;37084;55.228;36.450;2022-12-24T07:19:01;14.93;;;6.60;;
51048;SDS011;37084;55.228;36.450;2022-12-24T07:22:02;17.48;;;7.28;;
51048;SDS011;37084;55.228;36.450;2022-12-24T07:25:04;19.17;;;7.13;;
51048;SDS011;37084;55.228;36.450;2022-12-24T07:28:05;16.88;;;8.07;;
51048;SDS011;37084;55.228;36.450;2022-12-24T07:31:07;11.95;;;5.53;;
51048;SDS011;37084;55.228;36.450;2022-12-24T07:34:08;12.93;;;6.82;;
51048;SDS011;37084;55.228;36.450;2022-12-24T07:37:09;19.08;;;7.97;;
51048;SDS011;37084;55.228;36.450;2022-12-24T07:40:11;18.33;;;7.70;;
51048;SDS011;37084;55.228;36.450;2022-12-24T07:43:13;18.45;;;8.02;;
51048;SDS011;37084;55.228;36.450;2022-12-24T07:46:14;17.27;;;7.03;;
51048;SDS011;37084;55.228;36.450;2022-12-24T07:49:15;16.42;;;7.53;;
51048;SDS011;37084;55.228;36.450;2022-12-24T07:52:16;20.27;;;8.68;;
51048;SDS011;37084;55.228;36.450;2022-12-24T07:55:17;17.95;;;7.38;;
51048;SDS011;37084;55.228;36.450;2022-12-24T07:58:19;14.63;;;7.22;;
51048;SDS011;37084;55.228;36.450;2022-12-24T08:01:21;13.50;;;6.47;;
51048;SDS011;37084;55.228;36.450;2022-12-24T08:04:22;11.90;;;6.13;;
51048;SDS011;37084;55.228;36.450;2022-12-24T08:07:23;13.77;;;6.68;;
51048;SDS011;37084;55.228;36.450;2022-12-24T08:10:24;12.00;;;6.10;;
51048;SDS011;37084;55.228;36.450;2022-12-24T08:13:26;14.55;;;6.07;;
51048;SDS011;37084;55.228;36.450;2022-12-24T08:16:27;12.77;;;5.70;;
51048;SDS011;37084;55.228;36.450;2022-12-24T08:19:28;15.50;;;6.35;;
51048;SDS011;37084;55.228;36.450;2022-12-24T08:22:30;10.93;;;5.65;;
51048;SDS011;37084;55.228;36.450;2022-12-24T08:25:31;12.05;;;6.93;;
51048;SDS011;37084;55.228;36.450;2022-12-24T08:28:32;14.75;;;7.18;;
51048;SDS011;37084;55.228;36.450;2022-12-24T08:31:33;13.23;;;5.72;;
51048;SDS011;37084;55.228;36.450;2022-12-24T08:34:36;15.70;;;6.82;;
51048;SDS011;37084;55.228;36.450;2022-12-24T08:37:37;15.23;;;6.80;;
51048;SDS011;37084;55.228;36.450;2022-12-24T08:40:38;16.70;;;7.28;;
51048;SDS011;37084;55.228;36.450;2022-12-24T08:43:39;14.98;;;6.55;;
51048;SDS011;37084;55.228;36.450;2022-12-24T08:46:40;15.05;;;7.60;;
51048;SDS011;37084;55.228;36.450;2022-12-24T08:49:42;13.07;;;6.32;;
51048;SDS011;37084;55.228;36.450;2022-12-24T08:52:43;14.68;;;6.20;;
51048;SDS011;37084;55.228;36.450;2022-12-24T08:55:44;11.93;;;6.22;;
51048;SDS011;37084;55.228;36.450;2022-12-24T08:58:46;13.65;;;6.43;;
51048;SDS011;37084;55.228;36.450;2022-12-24T09:01:48;13.50;;;6.07;;
51048;SDS011;37084;55.228;36.450;2022-12-24T09:04:49;15.20;;;7.20;;
51048;SDS011;37084;55.228;36.450;2022-12-24T09:07:50;14.45;;;7.45;;
51048;SDS011;37084;55.228;36.450;2022-12-24T09:10:52;19.10;;;7.88;;
51048;SDS011;37084;55.228;36.450;2022-12-24T09:13:53;16.85;;;6.60;;
51048;SDS011;37084;55.228;36.450;2022-12-24T09:16:55;21.70;;;8.23;;
51048;SDS011;37084;55.228;36.450;2022-12-24T09:19:56;20.42;;;7.80;;
51048;SDS011;37084;55.228;36.450;2022-12-24T09:22:57;13.77;;;6.80;;
51048;SDS011;37084;55.228;36.450;2022-12-24T09:25:58;18.20;;;7.60;;
51048;SDS011;37084;55.228;36.450;2022-12-24T09:29:00;22.10;;;8.43;;
51048;SDS011;37084;55.228;36.450;2022-12-24T09:32:01;20.38;;;8.18;;
51048;SDS011;37084;55.228;36.450;2022-12-24T09:35:03;18.55;;;8.35;;
51048;SDS011;37084;55.228;36.450;2022-12-24T09:38:04;15.20;;;6.82;;
51048;SDS011;37084;55.228;36.450;2022-12-24T09:41:14;17.60;;;7.60;;
51048;SDS011;37084;55.228;36.450;2022-12-24T09:47:45;22.27;;;9.00;;
51048;SDS011;37084;55.228;36.450;2022-12-24T09:50:51;16.38;;;7.00;;
51048;SDS011;37084;55.228;36.450;2022-12-24T09:57:29;11.93;;;5.85;;
51048;SDS011;37084;55.228;36.450;2022-12-24T10:00:35;10.32;;;5.88;;
51048;SDS011;37084;55.228;36.450;2022-12-24T10:03:37;12.77;;;5.57;;
51048;SDS011;37084;55.228;36.450;2022-12-24T10:09:55;10.75;;;5.50;;
51048;SDS011;37084;55.228;36.450;2022-12-24T10:14:22;8.45;;;4.15;;
51048;SDS011;37084;55.228;36.450;2022-12-24T10:17:26;9.82;;;4.90;;
51048;SDS011;37084;55.228;36.450;2022-12-24T10:23:56;8.18;;;4.10;;
51048;SDS011;37084;55.228;36.450;2022-12-24T10:27:23;7.47;;;4.35;;
51048;SDS011;37084;55.228;36.450;2022-12-24T10:30:26;8.60;;;4.32;;
51048;SDS011;37084;55.228;36.450;2022-12-24T10:33:30;7.72;;;3.92;;
51048;SDS011;37084;55.228;36.450;2022-12-24T10:36:35;7.13;;;4.05;;
51048;SDS011;37084;55.228;36.450;2022-12-24T10:39:36;6.03;;;3.70;;
51048;SDS011;37084;55.228;36.450;2022-12-24T10:42:38;5.60;;;3.30;;
51048;SDS011;37084;55.228;36.450;2022-12-24T10:45:46;9.35;;;4.57;;
51048;SDS011;37084;55.228;36.450;2022-12-24T10:48:56;8.95;;;4.35;;
51048;SDS011;37084;55.228;36.450;2022-12-24T10:52:11;7.20;;;4.22;;
51048;SDS011;37084;55.228;36.450;2022-12-24T10:58:19;9.00;;;4.57;;
51048;SDS011;37084;55.228;36.450;2022-12-24T11:01:20;7.28;;;4.22;;
51048;SDS011;37084;55.228;36.450;2022-12-24T11:04:46;6.43;;;3.75;;
51048;SDS011;37084;55.228;36.450;2022-12-24T11:07:57;8.88;;;4.55;;
51048;SDS011;37084;55.228;36.450;2022-12-24T11:11:06;8.27;;;5.38;;
51048;SDS011;37084;55.228;36.450;2022-12-24T11:14:20;8.05;;;4.47;;
51048;SDS011;37084;55.228;36.450;2022-12-24T11:17:22;5.47;;;3.83;;
51048;SDS011;37084;55.228;36.450;2022-12-24T11:20:25;5.60;;;3.53;;
51048;SDS011;37084;55.228;36.450;2022-12-24T11:23:28;7.43;;;4.38;;
51048;SDS011;37084;55.228;36.450;2022-12-24T11:26:30;8.65;;;4.38;;
51048;SDS011;37084;55.228;36.450;2022-12-24T11:29:31;6.88;;;4.15;;
51048;SDS011;37084;55.228;36.450;2022-12-24T11:32:32;8.10;;;4.50;;
51048;SDS011;37084;55.228;36.450;2022-12-24T11:35:38;6.90;;;4.35;;
51048;SDS011;37084;55.228;36.450;2022-12-24T11:38:41;7.25;;;5.13;;
51048;SDS011;37084;55.228;36.450;2022-12-24T11:41:42;8.95;;;4.40;;
51048;SDS011;37084;55.228;36.450;2022-12-24T11:44:47;9.90;;;5.00;;
51048;SDS011;37084;55.228;36.450;2022-12-24T11:47:49;9.18;;;5.40;;
51048;SDS011;37084;55.228;36.450;2022-12-24T11:50:55;7.88;;;4.68;;
51048;SDS011;37084;55.228;36.450;2022-12-24T11:57:14;8.38;;;4.72;;
51048;SDS011;37084;55.228;36.450;2022-12-24T12:00:19;8.98;;;5.10;;
51048;SDS011;37084;55.228;36.450;2022-12-24T12:06:37;8.70;;;4.60;;
51048;SDS011;37084;55.228;36.450;2022-12-24T12:09:43;9.18;;;4.47;;
51048;SDS011;37084;55.228;36.450;2022-12-24T12:16:17;7.78;;;4.20;;
51048;SDS011;37084;55.228;36.450;2022-12-24T12:19:20;9.75;;;4.97;;
51048;SDS011;37084;55.228;36.450;2022-12-24T12:22:25;8.25;;;4.60;;
51048;SDS011;37084;55.228;36.450;2022-12-24T12:28:57;7.68;;;4.45;;
51048;SDS011;37084;55.228;36.450;2022-12-24T12:32:09;10.52;;;5.40;;
51048;SDS011;37084;55.228;36.450;2022-12-24T13:02:17;9.23;;;6.00;;
51048;SDS011;37084;55.228;36.450;2022-12-24T13:12:30;8.00;;;5.93;;
51048;SDS011;37084;55.228;36.450;2022-12-24T13:15:53;8.95;;;5.72;;
51048;SDS011;37084;55.228;36.450;2022-12-24T13:22:55;8.10;;;4.93;;
51048;SDS011;37084;55.228;36.450;2022-12-24T13:25:57;8.88;;;5.57;;
51048;SDS011;37084;55.228;36.450;2022-12-24T13:32:52;8.00;;;6.25;;
51048;SDS011;37084;55.228;36.450;2022-12-24T13:35:58;9.45;;;6.13;;
51048;SDS011;37084;55.228;36.450;2022-12-24T13:39:10;9.30;;;6.35;;
51048;SDS011;37084;55.228;36.450;2022-12-24T13:45:57;9.18;;;6.07;;
51048;SDS011;37084;55.228;36.450;2022-12-24T13:49:09;6.80;;;5.88;;
51048;SDS011;37084;55.228;36.450;2022-12-24T13:55:15;8.02;;;5.60;;
51048;SDS011;37084;55.228;36.450;2022-12-24T13:58:17;7.50;;;5.00;;
51048;SDS011;37084;55.228;36.450;2022-12-24T14:01:21;8.00;;;5.45;;
51048;SDS011;37084;55.228;36.450;2022-12-24T14:07:34;8.20;;;5.15;;
51048;SDS011;37084;55.228;36.450;2022-12-24T14:10:40;7.45;;;4.70;;
51048;SDS011;37084;55.228;36.450;2022-12-24T14:16:45;8.73;;;6.10;;
51048;SDS011;37084;55.228;36.450;2022-12-24T14:19:50;8.43;;;6.57;;
51048;SDS011;37084;55.228;36.450;2022-12-24T14:22:53;10.90;;;7.05;;
51048;SDS011;37084;55.228;36.450;2022-12-24T14:25:56;9.32;;;6.10;;
51048;SDS011;37084;55.228;36.450;2022-12-24T14:29:10;7.75;;;6.03;;
51048;SDS011;37084;55.228;36.450;2022-12-24T14:32:34;8.20;;;4.60;;
51048;SDS011;37084;55.228;36.450;2022-12-24T14:35:37;8.88;;;6.43;;
51048;SDS011;37084;55.228;36.450;2022-12-24T14:38:40;8.98;;;6.50;;
51048;SDS011;37084;55.228;36.450;2022-12-24T14:41:46;9.05;;;6.05;;
51048;SDS011;37084;55.228;36.450;2022-12-24T14:48:36;7.57;;;6.22;;
51048;SDS011;37084;55.228;36.450;2022-12-24T14:54:55;10.93;;;7.40;;
51048;SDS011;37084;55.228;36.450;2022-12-24T15:01:26;8.63;;;6.80;;
51048;SDS011;37084;55.228;36.450;2022-12-24T15:04:29;8.48;;;6.32;;
51048;SDS011;37084;55.228;36.450;2022-12-24T15:07:31;8.73;;;6.13;;
51048;SDS011;37084;55.228;36.450;2022-12-24T15:10:37;7.80;;;4.47;;
51048;SDS011;37084;55.228;36.450;2022-12-24T15:13:40;8.95;;;5.82;;
51048;SDS011;37084;55.228;36.450;2022-12-24T15:20:17;11.10;;;8.00;;
51048;SDS011;37084;55.228;36.450;2022-12-24T15:23:26;11.75;;;8.50;;
51048;SDS011;37084;55.228;36.450;2022-12-24T15:26:36;14.18;;;9.65;;
51048;SDS011;37084;55.228;36.450;2022-12-24T15:29:45;26.20;;;16.25;;
51048;SDS011;37084;55.228;36.450;2022-12-24T15:32:55;19.08;;;11.77;;
51048;SDS011;37084;55.228;36.450;2022-12-24T15:35:57;43.45;;;22.80;;
51048;SDS011;37084;55.228;36.450;2022-12-24T15:38:59;39.03;;;21.88;;
51048;SDS011;37084;55.228;36.450;2022-12-24T15:42:03;60.70;;;27.85;;
51048;SDS011;37084;55.228;36.450;2022-12-24T15:45:15;33.38;;;18.70;;
51048;SDS011;37084;55.228;36.450;2022-12-24T15:48:23;21.45;;;13.60;;
51048;SDS011;37084;55.228;36.450;2022-12-24T15:51:26;14.65;;;9.82;;
51048;SDS011;37084;55.228;36.450;2022-12-24T15:54:30;14.38;;;8.23;;
51048;SDS011;37084;55.228;36.450;2022-12-24T15:57:32;12.43;;;8.32;;
51048;SDS011;37084;55.228;36.450;2022-12-24T16:00:34;11.50;;;6.75;;
51048;SDS011;37084;55.228;36.450;2022-12-24T16:03:36;10.52;;;5.93;;
51048;SDS011;37084;55.228;36.450;2022-12-24T16:06:55;16.70;;;10.85;;
51048;SDS011;37084;55.228;36.450;2022-12-24T16:10:03;11.05;;;7.97;;
51048;SDS011;37084;55.228;36.450;2022-12-24T16:13:30;9.77;;;6.63;;
51048;SDS011;37084;55.228;36.450;2022-12-24T16:16:40;8.45;;;6.13;;
51048;SDS011;37084;55.228;36.450;2022-12-24T16:19:45;9.73;;;6.38;;
51048;SDS011;37084;55.228;36.450;2022-12-24T16:22:48;6.63;;;4.65;;
51048;SDS011;37084;55.228;36.450;2022-12-24T16:25:50;8.55;;;5.22;;
51048;SDS011;37084;55.228;36.450;2022-12-24T16:28:53;10.80;;;8.07;;
51048;SDS011;37084;55.228;36.450;2022-12-24T16:31:56;8.73;;;6.30;;
51048;SDS011;37084;55.228;36.450;2022-12-24T16:34:58;10.18;;;7.10;;
51048;SDS011;37084;55.228;36.450;2022-12-24T16:38:01;9.77;;;6.00;;
51048;SDS011;37084;55.228;36.450;2022-12-24T16:41:02;7.32;;;4.05;;
51048;SDS011;37084;55.228;36.450;2022-12-24T16:44:04;10.73;;;5.88;;
51048;SDS011;37084;55.228;36.450;2022-12-24T16:47:06;7.68;;;5.22;;
51048;SDS011;37084;55.228;36.450;2022-12-24T16:50:13;12.52;;;7.63;;
51048;SDS011;37084;55.228;36.450;2022-12-24T16:53:16;12.02;;;7.65;;
51048;SDS011;37084;55.228;36.450;2022-12-24T16:56:19;14.77;;;8.10;;
51048;SDS011;37084;55.228;36.450;2022-12-24T16:59:24;14.52;;;8.88;;
51048;SDS011;37084;55.228;36.450;2022-12-24T17:02:25;16.15;;;9.00;;
51048;SDS011;37084;55.228;36.450;2022-12-24T17:05:27;9.52;;;6.38;;
51048;SDS011;37084;55.228;36.450;2022-12-24T17:08:28;10.93;;;7.28;;
51048;SDS011;37084;55.228;36.450;2022-12-24T17:11:29;13.10;;;7.80;;
51048;SDS011;37084;55.228;36.450;2022-12-24T17:14:30;9.57;;;8.20;;
51048;SDS011;37084;55.228;36.450;2022-12-24T17:17:33;11.73;;;7.55;;
51048;SDS011;37084;55.228;36.450;2022-12-24T17:20:35;8.85;;;6.13;;
51048;SDS011;37084;55.228;36.450;2022-12-24T17:23:36;8.13;;;6.05;;
51048;SDS011;37084;55.228;36.450;2022-12-24T17:26:41;9.35;;;6.28;;
51048;SDS011;37084;55.228;36.450;2022-12-24T17:29:43;9.35;;;6.97;;
51048;SDS011;37084;55.228;36.450;2022-12-24T17:32:44;10.45;;;7.45;;
51048;SDS011;37084;55.228;36.450;2022-12-24T17:35:45;11.40;;;7.25;;
51048;SDS011;37084;55.228;36.450;2022-12-24T17:38:48;10.82;;;7.05;;
51048;SDS011;37084;55.228;36.450;2022-12-24T17:41:50;10.43;;;7.13;;
51048;SDS011;37084;55.228;36.450;2022-12-24T17:44:51;7.85;;;5.80;;
51048;SDS011;37084;55.228;36.450;2022-12-24T17:47:52;8.40;;;5.85;;
51048;SDS011;37084;55.228;36.450;2022-12-24T17:50:53;7.38;;;5.65;;
51048;SDS011;37084;55.228;36.450;2022-12-24T17:53:55;9.27;;;6.47;;
51048;SDS011;37084;55.228;36.450;2022-12-24T17:56:56;7.28;;;4.47;;
51048;SDS011;37084;55.228;36.450;2022-12-24T17:59:58;7.25;;;4.75;;
51048;SDS011;37084;55.228;36.450;2022-12-24T18:02:59;5.90;;;5.20;;
51048;SDS011;37084;55.228;36.450;2022-12-24T18:06:04;6.00;;;4.78;;
51048;SDS011;37084;55.228;36.450;2022-12-24T18:09:07;6.10;;;4.65;;
51048;SDS011;37084;55.228;36.450;2022-12-24T18:12:08;6.07;;;4.75;;
51048;SDS011;37084;55.228;36.450;2022-12-24T18:15:10;5.20;;;4.35;;
51048;SDS011;37084;55.228;36.450;2022-12-24T18:18:11;6.18;;;3.53;;
51048;SDS011;37084;55.228;36.450;2022-12-24T18:21:12;4.55;;;4.05;;
51048;SDS011;37084;55.228;36.450;2022-12-24T18:24:14;4.25;;;3.33;;
51048;SDS011;37084;55.228;36.450;2022-12-24T18:27:15;4.22;;;3.42;;
51048;SDS011;37084;55.228;36.450;2022-12-24T18:30:17;4.90;;;4.18;;
51048;SDS011;37084;55.228;36.450;2022-12-24T18:33:18;4.13;;;3.65;;
51048;SDS011;37084;55.228;36.450;2022-12-24T18:36:19;4.65;;;4.22;;
51048;SDS011;37084;55.228;36.450;2022-12-24T18:39:21;3.40;;;3.05;;
51048;SDS011;37084;55.228;36.450;2022-12-24T18:42:23;3.70;;;3.40;;
51048;SDS011;37084;55.228;36.450;2022-12-24T18:45:24;3.60;;;2.97;;
51048;SDS011;37084;55.228;36.450;2022-12-24T18:48:25;2.75;;;2.33;;
51048;SDS011;37084;55.228;36.450;2022-12-24T18:51:28;4.55;;;3.13;;
51048;SDS011;37084;55.228;36.450;2022-12-24T18:54:31;3.38;;;3.08;;
51048;SDS011;37084;55.228;36.450;2022-12-24T18:57:32;3.78;;;3.47;;
51048;SDS011;37084;55.228;36.450;2022-12-24T19:00:33;4.30;;;3.90;;
51048;SDS011;37084;55.228;36.450;2022-12-24T19:03:34;3.63;;;3.33;;
51048;SDS011;37084;55.228;36.450;2022-12-24T19:06:36;3.42;;;3.03;;
51048;SDS011;37084;55.228;36.450;2022-12-24T19:09:37;4.28;;;3.75;;
51048;SDS011;37084;55.228;36.450;2022-12-24T19:12:38;3.42;;;3.20;;
51048;SDS011;37084;55.228;36.450;2022-12-24T19:15:40;3.17;;;2.88;;
51048;SDS011;37084;55.228;36.450;2022-12-24T19:18:41;2.53;;;1.77;;
51048;SDS011;37084;55.228;36.450;2022-12-24T19:21:43;2.95;;;2.72;;
51048;SDS011;37084;55.228;36.450;2022-12-24T19:24:44;3.28;;;2.63;;
51048;SDS011;37084;55.228;36.450;2022-12-24T19:27:45;3.38;;;3.17;;
51048;SDS011;37084;55.228;36.450;2022-12-24T19:30:46;3.00;;;2.80;;
51048;SDS011;37084;55.228;36.450;2022-12-24T19:33:48;3.40;;;2.92;;
51048;SDS011;37084;55.228;36.450;2022-12-24T19:36:54;3.25;;;2.72;;
51048;SDS011;37084;55.228;36.450;2022-12-24T19:39:56;4.65;;;3.67;;
51048;SDS011;37084;55.228;36.450;2022-12-24T19:42:57;6.15;;;4.55;;
51048;SDS011;37084;55.228;36.450;2022-12-24T19:45:59;9.80;;;6.53;;
51048;SDS011;37084;55.228;36.450;2022-12-24T19:49:01;7.15;;;5.72;;
51048;SDS011;37084;55.228;36.450;2022-12-24T19:52:04;9.48;;;6.57;;